sensor_id;sensor_type;location;lat;lon;timestamp;pressure;altitude;pressure_sealevel;temperature;humidity
73085;BME280;62974;49.460;10.892;2023-08-01T00:00:45;96784.59;;;18.85;89.17
73085;BME280;62974;49.460;10.892;2023-08-01T00:03:13;96776.19;;;18.76;89.02
73085;BME280;62974;49.460;10.892;2023-08-01T00:05:42;96758.72;;;18.92;83.88
73085;BME280;62974;49.460;10.892;2023-08-01T00:08:11;96777.50;;;18.89;86.25
73085;BME280;62974;49.460;10.892;2023-08-01T00:10:40;96766.88;;;18.87;85.47
73085;BME280;62974;49.460;10.892;2023-08-01T00:13:08;96768.50;;;18.93;83.24
73085;BME280;62974;49.460;10.892;2023-08-01T00:15:36;96759.78;;;18.96;82.14
73085;BME280;62974;49.460;10.892;2023-08-01T00:18:04;96768.50;;;18.93;83.53
73085;BME280;62974;49.460;10.892;2023-08-01T00:20:31;96781.88;;;18.85;86.74
73085;BME280;62974;49.460;10.892;2023-08-01T00:23:00;96781.31;;;18.88;86.55
73085;BME280;62974;49.460;10.892;2023-08-01T00:25:28;96773.41;;;18.91;84.87
73085;BME280;62974;49.460;10.892;2023-08-01T00:27:55;96764.44;;;18.91;83.13
73085;BME280;62974;49.460;10.892;2023-08-01T00:30:23;96766.03;;;18.97;83.09
73085;BME280;62974;49.460;10.892;2023-08-01T00:32:50;96771.78;;;18.90;85.70
73085;BME280;62974;49.460;10.892;2023-08-01T00:35:18;96770.44;;;18.88;86.65
73085;BME280;62974;49.460;10.892;2023-08-01T00:37:45;96757.63;;;18.88;86.11
73085;BME280;62974;49.460;10.892;2023-08-01T00:40:14;96769.06;;;18.90;85.98
73085;BME280;62974;49.460;10.892;2023-08-01T00:42:43;96750.31;;;18.84;85.62
73085;BME280;62974;49.460;10.892;2023-08-01T00:45:11;96742.63;;;18.96;82.76
73085;BME280;62974;49.460;10.892;2023-08-01T00:47:39;96736.66;;;18.99;82.97
73085;BME280;62974;49.460;10.892;2023-08-01T00:50:07;96734.22;;;18.92;83.38
73085;BME280;62974;49.460;10.892;2023-08-01T00:52:35;96750.19;;;18.29;93.68
73085;BME280;62974;49.460;10.892;2023-08-01T00:55:03;96730.25;;;18.74;87.88
73085;BME280;62974;49.460;10.892;2023-08-01T00:57:32;96730.50;;;18.73;88.79
73085;BME280;62974;49.460;10.892;2023-08-01T01:00:00;96731.69;;;18.37;92.18
73085;BME280;62974;49.460;10.892;2023-08-01T01:02:27;96728.66;;;18.58;89.85
73085;BME280;62974;49.460;10.892;2023-08-01T01:04:55;96730.06;;;18.36;91.97
73085;BME280;62974;49.460;10.892;2023-08-01T01:07:23;96728.72;;;18.33;95.43
73085;BME280;62974;49.460;10.892;2023-08-01T01:09:51;96710.13;;;18.70;85.07
73085;BME280;62974;49.460;10.892;2023-08-01T01:12:18;96719.41;;;18.49;90.88
73085;BME280;62974;49.460;10.892;2023-08-01T01:14:47;96714.78;;;18.50;92.45
73085;BME280;62974;49.460;10.892;2023-08-01T01:17:15;96710.44;;;18.49;92.03
73085;BME280;62974;49.460;10.892;2023-08-01T01:19:42;96708.66;;;18.04;99.95
73085;BME280;62974;49.460;10.892;2023-08-01T01:22:18;96707.84;;;18.08;99.29
73085;BME280;62974;49.460;10.892;2023-08-01T01:24:46;96694.44;;;18.37;92.29
73085;BME280;62974;49.460;10.892;2023-08-01T01:27:16;96692.03;;;18.30;95.76
73085;BME280;62974;49.460;10.892;2023-08-01T01:29:45;96687.44;;;18.16;98.26
73085;BME280;62974;49.460;10.892;2023-08-01T01:32:14;96685.25;;;18.23;96.48
73085;BME280;62974;49.460;10.892;2023-08-01T01:34:44;96674.59;;;18.31;94.69
73085;BME280;62974;49.460;10.892;2023-08-01T01:37:11;96683.06;;;18.20;97.51
73085;BME280;62974;49.460;10.892;2023-08-01T01:39:40;96665.91;;;18.35;94.23
73085;BME280;62974;49.460;10.892;2023-08-01T01:42:08;96660.75;;;18.33;93.35
73085;BME280;62974;49.460;10.892;2023-08-01T01:44:35;96678.50;;;18.10;99.27
73085;BME280;62974;49.460;10.892;2023-08-01T01:47:03;96667.03;;;18.23;96.20
73085;BME280;62974;49.460;10.892;2023-08-01T01:49:31;96668.66;;;18.29;95.89
73085;BME280;62974;49.460;10.892;2023-08-01T01:51:58;96656.13;;;18.34;93.63
73085;BME280;62974;49.460;10.892;2023-08-01T01:54:26;96660.81;;;18.13;98.27
73085;BME280;62974;49.460;10.892;2023-08-01T01:56:55;96654.53;;;18.22;95.73
73085;BME280;62974;49.460;10.892;2023-08-01T01:59:22;96646.50;;;17.87;99.43
73085;BME280;62974;49.460;10.892;2023-08-01T02:01:50;96647.78;;;18.10;98.61
73085;BME280;62974;49.460;10.892;2023-08-01T02:04:17;96639.13;;;17.98;100.00
73085;BME280;62974;49.460;10.892;2023-08-01T02:06:45;96632.09;;;17.87;100.00
73085;BME280;62974;49.460;10.892;2023-08-01T02:09:13;96607.06;;;18.00;99.38
73085;BME280;62974;49.460;10.892;2023-08-01T02:11:40;96616.84;;;17.96;100.00
73085;BME280;62974;49.460;10.892;2023-08-01T02:14:09;96596.72;;;18.02;99.20
73085;BME280;62974;49.460;10.892;2023-08-01T02:16:37;96604.69;;;17.83;100.00
73085;BME280;62974;49.460;10.892;2023-08-01T02:19:05;96584.59;;;17.69;100.00
73085;BME280;62974;49.460;10.892;2023-08-01T02:21:32;96574.16;;;18.06;96.74
73085;BME280;62974;49.460;10.892;2023-08-01T02:24:00;96580.69;;;18.05;98.32
73085;BME280;62974;49.460;10.892;2023-08-01T02:26:28;96581.81;;;17.94;99.28
73085;BME280;62974;49.460;10.892;2023-08-01T02:28:55;96569.00;;;18.10;96.31
73085;BME280;62974;49.460;10.892;2023-08-01T02:31:24;96570.06;;;18.09;97.23
73085;BME280;62974;49.460;10.892;2023-08-01T02:33:52;96567.59;;;18.17;95.18
73085;BME280;62974;49.460;10.892;2023-08-01T02:36:19;96554.31;;;18.11;95.18
73085;BME280;62974;49.460;10.892;2023-08-01T02:38:47;96535.81;;;18.18;95.76
73085;BME280;62974;49.460;10.892;2023-08-01T02:41:14;96543.94;;;18.18;94.39
73085;BME280;62974;49.460;10.892;2023-08-01T02:43:42;96550.25;;;18.08;96.52
73085;BME280;62974;49.460;10.892;2023-08-01T02:46:09;96544.47;;;18.20;92.63
73085;BME280;62974;49.460;10.892;2023-08-01T02:48:38;96569.44;;;17.32;100.00
73085;BME280;62974;49.460;10.892;2023-08-01T02:51:06;96556.78;;;18.07;95.29
73085;BME280;62974;49.460;10.892;2023-08-01T02:53:35;96564.31;;;18.20;93.85
73085;BME280;62974;49.460;10.892;2023-08-01T02:56:03;96561.06;;;18.18;93.44
73085;BME280;62974;49.460;10.892;2023-08-01T02:58:33;96570.88;;;18.14;95.10
73085;BME280;62974;49.460;10.892;2023-08-01T03:01:01;96567.38;;;18.04;95.45
73085;BME280;62974;49.460;10.892;2023-08-01T03:03:28;96579.66;;;17.91;99.47
73085;BME280;62974;49.460;10.892;2023-08-01T03:05:57;96584.53;;;17.94;99.20
73085;BME280;62974;49.460;10.892;2023-08-01T03:08:26;96579.09;;;17.94;99.77
73085;BME280;62974;49.460;10.892;2023-08-01T03:10:53;96583.16;;;18.02;99.02
73085;BME280;62974;49.460;10.892;2023-08-01T03:13:21;96589.47;;;17.87;100.00
73085;BME280;62974;49.460;10.892;2023-08-01T03:15:49;96588.38;;;17.78;100.00
73085;BME280;62974;49.460;10.892;2023-08-01T03:18:16;96579.09;;;17.99;99.28
73085;BME280;62974;49.460;10.892;2023-08-01T03:20:44;96566.59;;;17.98;99.50
73085;BME280;62974;49.460;10.892;2023-08-01T03:23:13;96565.59;;;17.79;100.00
73085;BME280;62974;49.460;10.892;2023-08-01T03:25:41;96561.22;;;17.83;100.00
73085;BME280;62974;49.460;10.892;2023-08-01T03:28:08;96548.22;;;17.75;100.00
73085;BME280;62974;49.460;10.892;2023-08-01T03:30:36;96555.25;;;17.76;100.00
73085;BME280;62974;49.460;10.892;2023-08-01T03:33:04;96559.28;;;17.89;100.00
73085;BME280;62974;49.460;10.892;2023-08-01T03:35:31;96561.78;;;17.75;100.00
73085;BME280;62974;49.460;10.892;2023-08-01T03:37:59;96563.19;;;17.32;100.00
73085;BME280;62974;49.460;10.892;2023-08-01T03:40:27;96535.41;;;17.86;100.00
73085;BME280;62974;49.460;10.892;2023-08-01T03:42:55;96540.00;;;17.90;100.00
73085;BME280;62974;49.460;10.892;2023-08-01T03:45:22;96526.41;;;17.95;100.00
73085;BME280;62974;49.460;10.892;2023-08-01T03:47:50;96526.19;;;17.81;100.00
73085;BME280;62974;49.460;10.892;2023-08-01T03:50:18;96522.13;;;17.74;100.00
73085;BME280;62974;49.460;10.892;2023-08-01T03:52:46;96513.41;;;17.82;100.00
73085;BME280;62974;49.460;10.892;2023-08-01T03:55:13;96518.03;;;17.76;100.00
73085;BME280;62974;49.460;10.892;2023-08-01T03:57:43;96508.75;;;17.88;100.00
73085;BME280;62974;49.460;10.892;2023-08-01T04:00:11;96499.84;;;17.82;99.81
73085;BME280;62974;49.460;10.892;2023-08-01T04:02:40;96488.91;;;17.97;95.87
73085;BME280;62974;49.460;10.892;2023-08-01T04:05:11;96498.19;;;17.86;100.00
73085;BME280;62974;49.460;10.892;2023-08-01T04:07:38;96496.94;;;17.48;100.00
73085;BME280;62974;49.460;10.892;2023-08-01T04:10:07;96513.75;;;17.65;100.00
73085;BME280;62974;49.460;10.892;2023-08-01T04:12:34;96504.22;;;17.68;100.00
73085;BME280;62974;49.460;10.892;2023-08-01T04:15:04;96503.72;;;17.61;100.00
73085;BME280;62974;49.460;10.892;2023-08-01T04:17:32;96508.34;;;17.50;100.00
73085;BME280;62974;49.460;10.892;2023-08-01T04:19:59;96496.66;;;17.60;100.00
73085;BME280;62974;49.460;10.892;2023-08-01T04:22:27;96501.84;;;17.46;100.00
73085;BME280;62974;49.460;10.892;2023-08-01T04:24:55;96493.09;;;17.64;100.00
73085;BME280;62974;49.460;10.892;2023-08-01T04:27:22;96487.41;;;17.66;100.00
73085;BME280;62974;49.460;10.892;2023-08-01T04:29:50;96488.50;;;17.60;100.00
73085;BME280;62974;49.460;10.892;2023-08-01T04:32:19;96484.22;;;17.38;100.00
73085;BME280;62974;49.460;10.892;2023-08-01T04:34:46;96491.28;;;17.34;100.00
73085;BME280;62974;49.460;10.892;2023-08-01T04:37:14;96487.75;;;17.29;100.00
73085;BME280;62974;49.460;10.892;2023-08-01T04:39:42;96478.19;;;17.62;100.00
73085;BME280;62974;49.460;10.892;2023-08-01T04:42:09;96475.78;;;17.45;100.00
73085;BME280;62974;49.460;10.892;2023-08-01T04:44:37;96467.31;;;17.67;100.00
73085;BME280;62974;49.460;10.892;2023-08-01T04:47:05;96469.00;;;17.43;100.00
73085;BME280;62974;49.460;10.892;2023-08-01T04:49:34;96463.84;;;17.46;100.00
73085;BME280;62974;49.460;10.892;2023-08-01T04:52:01;96444.81;;;17.61;100.00
73085;BME280;62974;49.460;10.892;2023-08-01T04:54:32;96478.22;;;17.47;100.00
73085;BME280;62974;49.460;10.892;2023-08-01T04:57:00;96471.78;;;17.17;100.00
73085;BME280;62974;49.460;10.892;2023-08-01T04:59:27;96472.81;;;17.42;100.00
73085;BME280;62974;49.460;10.892;2023-08-01T05:01:55;96467.63;;;17.50;100.00
73085;BME280;62974;49.460;10.892;2023-08-01T05:04:23;96474.69;;;17.51;100.00
73085;BME280;62974;49.460;10.892;2023-08-01T05:06:52;96463.78;;;17.66;100.00
73085;BME280;62974;49.460;10.892;2023-08-01T05:09:20;96474.94;;;17.50;100.00
73085;BME280;62974;49.460;10.892;2023-08-01T05:11:47;96463.47;;;17.73;100.00
73085;BME280;62974;49.460;10.892;2023-08-01T05:14:15;96489.91;;;17.37;100.00
73085;BME280;62974;49.460;10.892;2023-08-01T05:16:42;96491.84;;;17.26;100.00
73085;BME280;62974;49.460;10.892;2023-08-01T05:19:10;96474.91;;;17.65;100.00
73085;BME280;62974;49.460;10.892;2023-08-01T05:21:37;96468.59;;;17.79;100.00
73085;BME280;62974;49.460;10.892;2023-08-01T05:24:06;96461.56;;;17.78;100.00
73085;BME280;62974;49.460;10.892;2023-08-01T05:26:34;96482.00;;;17.61;100.00
73085;BME280;62974;49.460;10.892;2023-08-01T05:29:01;96468.06;;;17.77;100.00
73085;BME280;62974;49.460;10.892;2023-08-01T05:31:30;96467.81;;;17.79;100.00
73085;BME280;62974;49.460;10.892;2023-08-01T05:33:57;96478.47;;;17.60;100.00
73085;BME280;62974;49.460;10.892;2023-08-01T05:36:25;96471.63;;;17.78;100.00
73085;BME280;62974;49.460;10.892;2023-08-01T05:38:52;96466.44;;;17.81;100.00
73085;BME280;62974;49.460;10.892;2023-08-01T05:41:21;96471.59;;;17.83;100.00
73085;BME280;62974;49.460;10.892;2023-08-01T05:43:49;96469.41;;;17.80;100.00
73085;BME280;62974;49.460;10.892;2023-08-01T05:46:17;96494.75;;;17.60;100.00
73085;BME280;62974;49.460;10.892;2023-08-01T05:48:44;96495.88;;;17.59;100.00
73085;BME280;62974;49.460;10.892;2023-08-01T05:51:12;96493.69;;;17.46;100.00
73085;BME280;62974;49.460;10.892;2023-08-01T05:53:42;96490.97;;;17.61;100.00
73085;BME280;62974;49.460;10.892;2023-08-01T05:56:09;96486.59;;;17.65;100.00
73085;BME280;62974;49.460;10.892;2023-08-01T05:58:38;96498.03;;;17.57;100.00
73085;BME280;62974;49.460;10.892;2023-08-01T06:01:06;96494.50;;;17.62;100.00
73085;BME280;62974;49.460;10.892;2023-08-01T06:03:35;96494.22;;;17.63;100.00
73085;BME280;62974;49.460;10.892;2023-08-01T06:06:05;96491.75;;;17.52;100.00
73085;BME280;62974;49.460;10.892;2023-08-01T06:08:32;96466.44;;;17.81;100.00
73085;BME280;62974;49.460;10.892;2023-08-01T06:11:00;96472.13;;;17.85;100.00
73085;BME280;62974;49.460;10.892;2023-08-01T06:13:27;96480.38;;;17.55;100.00
73085;BME280;62974;49.460;10.892;2023-08-01T06:15:56;96482.22;;;17.69;100.00
73085;BME280;62974;49.460;10.892;2023-08-01T06:18:24;96472.13;;;17.80;100.00
73085;BME280;62974;49.460;10.892;2023-08-01T06:20:51;96477.03;;;17.83;100.00
73085;BME280;62974;49.460;10.892;2023-08-01T06:23:19;96495.81;;;17.69;100.00
73085;BME280;62974;49.460;10.892;2023-08-01T06:25:47;96482.41;;;17.93;98.97
73085;BME280;62974;49.460;10.892;2023-08-01T06:28:14;96503.69;;;17.71;100.00
73085;BME280;62974;49.460;10.892;2023-08-01T06:30:42;96502.00;;;17.80;100.00
73085;BME280;62974;49.460;10.892;2023-08-01T06:33:10;96511.25;;;17.79;100.00
73085;BME280;62974;49.460;10.892;2023-08-01T06:35:38;96509.88;;;17.87;100.00
73085;BME280;62974;49.460;10.892;2023-08-01T06:38:06;96504.97;;;17.89;100.00
73085;BME280;62974;49.460;10.892;2023-08-01T06:40:33;96503.06;;;17.84;100.00
73085;BME280;62974;49.460;10.892;2023-08-01T06:43:01;96500.09;;;17.86;100.00
73085;BME280;62974;49.460;10.892;2023-08-01T06:45:28;96483.47;;;17.97;100.00
73085;BME280;62974;49.460;10.892;2023-08-01T06:47:56;96513.75;;;17.70;100.00
73085;BME280;62974;49.460;10.892;2023-08-01T06:50:25;96510.97;;;17.86;100.00
73085;BME280;62974;49.460;10.892;2023-08-01T06:52:52;96516.16;;;17.77;100.00
73085;BME280;62974;49.460;10.892;2023-08-01T06:55:20;96521.81;;;17.86;100.00
73085;BME280;62974;49.460;10.892;2023-08-01T06:57:48;96518.59;;;17.78;100.00
73085;BME280;62974;49.460;10.892;2023-08-01T07:00:15;96510.97;;;17.86;100.00
73085;BME280;62974;49.460;10.892;2023-08-01T07:02:43;96499.53;;;17.89;100.00
73085;BME280;62974;49.460;10.892;2023-08-01T07:05:11;96518.66;;;17.63;100.00
73085;BME280;62974;49.460;10.892;2023-08-01T07:07:40;96508.50;;;17.84;100.00
73085;BME280;62974;49.460;10.892;2023-08-01T07:10:08;96481.53;;;18.03;99.96
73085;BME280;62974;49.460;10.892;2023-08-01T07:12:35;96500.06;;;17.91;100.00
73085;BME280;62974;49.460;10.892;2023-08-01T07:15:04;96506.69;;;17.64;100.00
73085;BME280;62974;49.460;10.892;2023-08-01T07:17:31;96463.38;;;17.98;100.00
73085;BME280;62974;49.460;10.892;2023-08-01T07:19:59;96457.59;;;18.10;99.55
73085;BME280;62974;49.460;10.892;2023-08-01T07:22:27;96478.00;;;18.02;100.00
73085;BME280;62974;49.460;10.892;2023-08-01T07:24:55;96483.13;;;18.09;98.41
73085;BME280;62974;49.460;10.892;2023-08-01T07:27:23;96479.44;;;17.90;100.00
73085;BME280;62974;49.460;10.892;2023-08-01T07:29:50;96489.47;;;17.94;100.00
73085;BME280;62974;49.460;10.892;2023-08-01T07:32:18;96488.09;;;17.97;100.00
73085;BME280;62974;49.460;10.892;2023-08-01T07:34:46;96474.47;;;18.02;100.00
73085;BME280;62974;49.460;10.892;2023-08-01T07:37:13;96478.81;;;18.03;100.00
73085;BME280;62974;49.460;10.892;2023-08-01T07:39:41;96461.69;;;18.07;99.76
73085;BME280;62974;49.460;10.892;2023-08-01T07:42:10;96489.81;;;17.77;100.00
73085;BME280;62974;49.460;10.892;2023-08-01T07:44:37;96504.19;;;17.83;100.00
73085;BME280;62974;49.460;10.892;2023-08-01T07:47:05;96474.47;;;18.07;100.00
73085;BME280;62974;49.460;10.892;2023-08-01T07:49:33;96473.41;;;18.03;100.00
73085;BME280;62974;49.460;10.892;2023-08-01T07:52:00;96481.00;;;18.01;100.00
73085;BME280;62974;49.460;10.892;2023-08-01T07:54:28;96484.84;;;17.95;100.00
73085;BME280;62974;49.460;10.892;2023-08-01T07:56:55;96480.75;;;17.92;100.00
73085;BME280;62974;49.460;10.892;2023-08-01T07:59:25;96482.41;;;17.93;100.00
73085;BME280;62974;49.460;10.892;2023-08-01T08:01:52;96478.09;;;17.87;100.00
73085;BME280;62974;49.460;10.892;2023-08-01T08:04:20;96476.97;;;17.88;100.00
73085;BME280;62974;49.460;10.892;2023-08-01T08:06:47;96487.59;;;17.84;100.00
73085;BME280;62974;49.460;10.892;2023-08-01T08:09:15;96499.88;;;17.72;100.00
73085;BME280;62974;49.460;10.892;2023-08-01T08:11:42;96499.06;;;17.71;100.00
73085;BME280;62974;49.460;10.892;2023-08-01T08:14:10;96503.72;;;17.61;100.00
73085;BME280;62974;49.460;10.892;2023-08-01T08:16:42;96507.50;;;17.60;100.00
73085;BME280;62974;49.460;10.892;2023-08-01T08:19:10;96523.53;;;17.61;100.00
73085;BME280;62974;49.460;10.892;2023-08-01T08:21:37;96531.13;;;17.64;100.00
73085;BME280;62974;49.460;10.892;2023-08-01T08:24:07;96541.19;;;17.49;100.00
73085;BME280;62974;49.460;10.892;2023-08-01T08:26:36;96542.50;;;17.56;100.00
73085;BME280;62974;49.460;10.892;2023-08-01T08:29:06;96544.44;;;17.46;100.00
73085;BME280;62974;49.460;10.892;2023-08-01T08:31:34;96544.19;;;17.57;100.00
73085;BME280;62974;49.460;10.892;2023-08-01T08:34:03;96559.66;;;17.36;100.00
73085;BME280;62974;49.460;10.892;2023-08-01T08:36:31;96549.88;;;17.46;100.00
73085;BME280;62974;49.460;10.892;2023-08-01T08:38:58;96559.13;;;17.34;100.00
73085;BME280;62974;49.460;10.892;2023-08-01T08:41:28;96544.44;;;17.46;100.00
73085;BME280;62974;49.460;10.892;2023-08-01T08:44:01;96472.28;;;17.29;100.00
73085;BME280;62974;49.460;10.892;2023-08-01T08:46:29;96435.13;;;17.35;100.00
73085;BME280;62974;49.460;10.892;2023-08-01T08:48:59;96389.50;;;17.32;100.00
73085;BME280;62974;49.460;10.892;2023-08-01T08:51:29;96371.91;;;17.24;100.00
73085;BME280;62974;49.460;10.892;2023-08-01T08:53:58;96411.84;;;17.14;100.00
73085;BME280;62974;49.460;10.892;2023-08-01T08:56:28;96393.91;;;17.23;100.00
73085;BME280;62974;49.460;10.892;2023-08-01T08:58:57;96405.56;;;17.23;100.00
73085;BME280;62974;49.460;10.892;2023-08-01T09:01:24;96438.66;;;17.25;100.00
73085;BME280;62974;49.460;10.892;2023-08-01T09:03:53;96431.63;;;17.19;100.00
73085;BME280;62974;49.460;10.892;2023-08-01T09:06:25;96434.34;;;17.14;100.00
73085;BME280;62974;49.460;10.892;2023-08-01T09:09:02;96421.06;;;17.13;100.00
73085;BME280;62974;49.460;10.892;2023-08-01T09:11:39;96419.16;;;17.23;100.00
73085;BME280;62974;49.460;10.892;2023-08-01T09:14:08;96420.22;;;17.22;100.00
73085;BME280;62974;49.460;10.892;2023-08-01T09:16:37;96430.25;;;17.27;100.00
73085;BME280;62974;49.460;10.892;2023-08-01T09:19:05;96440.53;;;17.35;100.00
73085;BME280;62974;49.460;10.892;2023-08-01T09:21:33;96449.78;;;17.29;100.00
73085;BME280;62974;49.460;10.892;2023-08-01T09:24:09;96436.91;;;17.60;100.00
73085;BME280;62974;49.460;10.892;2023-08-01T09:26:37;96449.91;;;17.68;100.00
73085;BME280;62974;49.460;10.892;2023-08-01T09:29:05;96450.50;;;17.60;100.00
73085;BME280;62974;49.460;10.892;2023-08-01T09:31:35;96459.72;;;17.54;100.00
73085;BME280;62974;49.460;10.892;2023-08-01T09:34:04;96443.72;;;17.52;100.00
73085;BME280;62974;49.460;10.892;2023-08-01T09:36:33;96451.03;;;17.52;100.00
73085;BME280;62974;49.460;10.892;2023-08-01T09:39:02;96459.75;;;17.49;100.00
73085;BME280;62974;49.460;10.892;2023-08-01T09:41:31;96448.06;;;17.53;100.00
73085;BME280;62974;49.460;10.892;2023-08-01T09:43:59;96442.38;;;17.45;100.00
73085;BME280;62974;49.460;10.892;2023-08-01T09:46:27;96454.34;;;17.44;100.00
73085;BME280;62974;49.460;10.892;2023-08-01T09:48:54;96434.22;;;17.55;100.00
73085;BME280;62974;49.460;10.892;2023-08-01T09:51:22;96435.88;;;17.51;100.00
73085;BME280;62974;49.460;10.892;2023-08-01T09:53:52;96427.16;;;17.49;100.00
73085;BME280;62974;49.460;10.892;2023-08-01T09:56:21;96445.34;;;17.48;100.00
73085;BME280;62974;49.460;10.892;2023-08-01T09:58:51;96437.44;;;17.57;100.00
73085;BME280;62974;49.460;10.892;2023-08-01T10:01:21;96436.09;;;17.64;100.00
73085;BME280;62974;49.460;10.892;2023-08-01T10:03:50;96427.66;;;17.71;100.00
73085;BME280;62974;49.460;10.892;2023-08-01T10:06:20;96437.41;;;17.72;100.00
73085;BME280;62974;49.460;10.892;2023-08-01T10:08:49;96424.28;;;17.94;100.00
73085;BME280;62974;49.460;10.892;2023-08-01T10:11:18;96428.78;;;18.09;100.00
73085;BME280;62974;49.460;10.892;2023-08-01T10:13:46;96438.00;;;18.13;100.00
73085;BME280;62974;49.460;10.892;2023-08-01T10:16:15;96444.03;;;18.05;100.00
73085;BME280;62974;49.460;10.892;2023-08-01T10:18:43;96435.34;;;18.03;100.00
73085;BME280;62974;49.460;10.892;2023-08-01T10:21:13;96445.97;;;17.99;100.00
73085;BME280;62974;49.460;10.892;2023-08-01T10:23:41;96447.06;;;17.98;100.00
73085;BME280;62974;49.460;10.892;2023-08-01T10:26:10;96453.81;;;18.01;100.00
73085;BME280;62974;49.460;10.892;2023-08-01T10:28:39;96447.56;;;18.00;100.00
73085;BME280;62974;49.460;10.892;2023-08-01T10:31:08;96430.75;;;17.98;100.00
73085;BME280;62974;49.460;10.892;2023-08-01T10:33:38;96425.56;;;18.07;100.00
73085;BME280;62974;49.460;10.892;2023-08-01T10:36:15;96435.88;;;18.05;100.00
73085;BME280;62974;49.460;10.892;2023-08-01T10:38:49;96438.59;;;18.05;100.00
73085;BME280;62974;49.460;10.892;2023-08-01T10:41:19;96441.78;;;18.17;100.00
73085;BME280;62974;49.460;10.892;2023-08-01T10:43:46;96433.97;;;18.05;100.00
73085;BME280;62974;49.460;10.892;2023-08-01T10:46:14;96433.88;;;18.15;100.00
73085;BME280;62974;49.460;10.892;2023-08-01T10:48:50;96430.16;;;18.11;100.00
73085;BME280;62974;49.460;10.892;2023-08-01T10:51:19;96438.25;;;18.16;100.00
73085;BME280;62974;49.460;10.892;2023-08-01T10:53:46;96436.09;;;18.13;100.00
73085;BME280;62974;49.460;10.892;2023-08-01T10:56:18;96426.56;;;18.16;100.00
73085;BME280;62974;49.460;10.892;2023-08-01T10:58:47;96424.53;;;18.31;100.00
73085;BME280;62974;49.460;10.892;2023-08-01T11:01:14;96429.47;;;18.29;100.00
73085;BME280;62974;49.460;10.892;2023-08-01T11:03:42;96424.16;;;18.53;100.00
73085;BME280;62974;49.460;10.892;2023-08-01T11:06:12;96433.00;;;18.64;100.00
73085;BME280;62974;49.460;10.892;2023-08-01T11:08:40;96442.09;;;18.54;100.00
73085;BME280;62974;49.460;10.892;2023-08-01T11:11:11;96443.13;;;18.58;100.00
73085;BME280;62974;49.460;10.892;2023-08-01T11:13:41;96444.47;;;18.61;100.00
73085;BME280;62974;49.460;10.892;2023-08-01T11:16:17;96446.22;;;18.75;100.00
73085;BME280;62974;49.460;10.892;2023-08-01T11:18:45;96450.81;;;18.80;100.00
73085;BME280;62974;49.460;10.892;2023-08-01T11:21:26;96438.81;;;18.86;100.00
73085;BME280;62974;49.460;10.892;2023-08-01T11:23:54;96440.50;;;18.82;100.00
73085;BME280;62974;49.460;10.892;2023-08-01T11:26:23;96443.38;;;18.62;100.00
73085;BME280;62974;49.460;10.892;2023-08-01T11:28:51;96430.41;;;18.49;100.00
73085;BME280;62974;49.460;10.892;2023-08-01T11:31:18;96431.72;;;18.56;100.00
73085;BME280;62974;49.460;10.892;2023-08-01T11:33:55;96437.75;;;18.48;100.00
73085;BME280;62974;49.460;10.892;2023-08-01T11:36:26;96455.59;;;18.25;100.00
73085;BME280;62974;49.460;10.892;2023-08-01T11:38:55;96457.34;;;18.06;100.00
73085;BME280;62974;49.460;10.892;2023-08-01T11:41:24;96474.75;;;18.00;100.00
73085;BME280;62974;49.460;10.892;2023-08-01T11:43:51;96485.91;;;17.99;100.00
73085;BME280;62974;49.460;10.892;2023-08-01T11:46:21;96492.16;;;17.99;96.92
73085;BME280;62974;49.460;10.892;2023-08-01T11:48:49;96501.47;;;17.78;95.65
73085;BME280;62974;49.460;10.892;2023-08-01T11:51:17;96494.00;;;17.24;90.60
73085;BME280;62974;49.460;10.892;2023-08-01T11:53:46;96506.19;;;17.37;92.89
73085;BME280;62974;49.460;10.892;2023-08-01T11:56:20;96516.53;;;17.30;94.37
73085;BME280;62974;49.460;10.892;2023-08-01T11:58:48;96511.94;;;17.05;93.54
73085;BME280;62974;49.460;10.892;2023-08-01T12:01:15;96499.72;;;17.23;97.01
73085;BME280;62974;49.460;10.892;2023-08-01T12:03:44;96489.28;;;17.70;97.26
73085;BME280;62974;49.460;10.892;2023-08-01T12:06:12;96468.78;;;17.98;96.06
73085;BME280;62974;49.460;10.892;2023-08-01T12:08:41;96482.31;;;18.52;96.51
73085;BME280;62974;49.460;10.892;2023-08-01T12:11:19;96481.13;;;18.68;99.68
73085;BME280;62974;49.460;10.892;2023-08-01T12:13:47;96478.16;;;18.21;95.79
73085;BME280;62974;49.460;10.892;2023-08-01T12:16:15;96478.25;;;18.06;94.48
73085;BME280;62974;49.460;10.892;2023-08-01T12:18:46;96471.59;;;18.71;93.00
73085;BME280;62974;49.460;10.892;2023-08-01T12:21:26;96479.28;;;18.93;95.80
73085;BME280;62974;49.460;10.892;2023-08-01T12:23:53;96465.53;;;19.08;91.56
73085;BME280;62974;49.460;10.892;2023-08-01T12:26:22;96462.09;;;19.26;89.61
73085;BME280;62974;49.460;10.892;2023-08-01T12:28:50;96459.03;;;19.04;88.14
73085;BME280;62974;49.460;10.892;2023-08-01T12:31:19;96466.38;;;19.03;89.31
73085;BME280;62974;49.460;10.892;2023-08-01T12:33:47;96457.69;;;19.30;87.11
73085;BME280;62974;49.460;10.892;2023-08-01T12:36:15;96472.94;;;18.73;84.29
73085;BME280;62974;49.460;10.892;2023-08-01T12:38:43;96474.66;;;18.59;86.36
73085;BME280;62974;49.460;10.892;2023-08-01T12:41:10;96481.91;;;18.74;85.58
73085;BME280;62974;49.460;10.892;2023-08-01T12:43:40;96474.31;;;18.71;86.86
73085;BME280;62974;49.460;10.892;2023-08-01T12:46:09;96468.97;;;18.56;85.20
73085;BME280;62974;49.460;10.892;2023-08-01T12:48:36;96482.59;;;18.51;85.73